sensor_id;sensor_type;location;lat;lon;timestamp;pressure;altitude;pressure_sealevel;temperature;humidity
16431;BME280;8325;49.284;7.238;2023-05-11T04:01:41;98562.63;;;9.95;100.00
16431;BME280;8325;49.284;7.238;2023-05-11T04:05:53;98563.25;;;9.97;100.00
16431;BME280;8325;49.284;7.238;2023-05-11T04:10:05;98563.09;;;9.98;100.00
16431;BME280;8325;49.284;7.238;2023-05-11T04:14:17;98560.16;;;10.01;100.00
16431;BME280;8325;49.284;7.238;2023-05-11T04:18:29;98567.19;;;10.01;100.00
16431;BME280;8325;49.284;7.238;2023-05-11T04:22:41;98568.00;;;10.01;100.00
16431;BME280;8325;49.284;7.238;2023-05-11T04:26:55;98573.38;;;10.00;100.00
16431;BME280;8325;49.284;7.238;2023-05-11T04:31:07;98574.00;;;10.02;100.00
16431;BME280;8325;49.284;7.238;2023-05-11T04:35:21;98568.78;;;10.02;100.00
16431;BME280;8325;49.284;7.238;2023-05-11T04:39:34;98571.06;;;10.05;100.00
16431;BME280;8325;49.284;7.238;2023-05-11T04:43:46;98573.34;;;10.08;100.00
16431;BME280;8325;49.284;7.238;2023-05-11T04:47:57;98572.00;;;10.12;100.00
16431;BME280;8325;49.284;7.238;2023-05-11T04:52:10;98573.66;;;10.13;100.00
16431;BME280;8325;49.284;7.238;2023-05-11T04:56:23;98580.81;;;10.19;100.00
16431;BME280;8325;49.284;7.238;2023-05-11T05:00:35;98570.47;;;10.26;100.00
16431;BME280;8325;49.284;7.238;2023-05-11T05:04:47;98574.75;;;10.27;100.00
16431;BME280;8325;49.284;7.238;2023-05-11T05:08:58;98574.53;;;10.36;100.00
16431;BME280;8325;49.284;7.238;2023-05-11T05:13:10;98582.66;;;10.42;100.00
16431;BME280;8325;49.284;7.238;2023-05-11T05:17:21;98576.09;;;10.46;100.00
16431;BME280;8325;49.284;7.238;2023-05-11T05:21:33;98586.19;;;10.49;100.00
16431;BME280;8325;49.284;7.238;2023-05-11T05:25:46;98585.16;;;10.58;100.00
16431;BME280;8325;49.284;7.238;2023-05-11T05:29:58;98584.66;;;10.63;100.00
16431;BME280;8325;49.284;7.238;2023-05-11T05:34:10;98585.13;;;10.66;100.00
16431;BME280;8325;49.284;7.238;2023-05-11T05:38:26;98586.84;;;10.74;100.00
16431;BME280;8325;49.284;7.238;2023-05-11T05:42:40;98591.56;;;10.78;100.00
16431;BME280;8325;49.284;7.238;2023-05-11T05:46:54;98594.31;;;10.85;100.00
16431;BME280;8325;49.284;7.238;2023-05-11T05:51:06;98590.16;;;11.14;100.00
16431;BME280;8325;49.284;7.238;2023-05-11T05:55:18;98593.50;;;11.22;100.00
16431;BME280;8325;49.284;7.238;2023-05-11T05:59:32;98594.41;;;11.29;100.00
16431;BME280;8325;49.284;7.238;2023-05-11T06:03:44;98593.72;;;11.36;100.00
16431;BME280;8325;49.284;7.238;2023-05-11T06:07:56;98594.66;;;11.20;100.00
16431;BME280;8325;49.284;7.238;2023-05-11T06:12:21;98596.47;;;11.19;100.00
16431;BME280;8325;49.284;7.238;2023-05-11T06:16:35;98601.41;;;11.14;100.00
16431;BME280;8325;49.284;7.238;2023-05-11T06:20:47;98607.94;;;11.18;100.00
16431;BME280;8325;49.284;7.238;2023-05-11T06:25:00;98613.97;;;11.19;100.00
16431;BME280;8325;49.284;7.238;2023-05-11T06:29:12;98609.31;;;11.29;100.00
16431;BME280;8325;49.284;7.238;2023-05-11T06:33:25;98606.88;;;11.27;100.00
16431;BME280;8325;49.284;7.238;2023-05-11T06:37:38;98603.47;;;11.42;100.00
16431;BME280;8325;49.284;7.238;2023-05-11T06:41:53;98613.84;;;11.50;100.00
16431;BME280;8325;49.284;7.238;2023-05-11T06:46:07;98611.69;;;11.53;100.00
16431;BME280;8325;49.284;7.238;2023-05-11T06:50:19;98605.59;;;11.76;100.00
16431;BME280;8325;49.284;7.238;2023-05-11T06:54:32;98612.22;;;11.87;100.00
16431;BME280;8325;49.284;7.238;2023-05-11T06:58:44;98606.97;;;11.87;100.00
16431;BME280;8325;49.284;7.238;2023-05-11T07:02:55;98602.19;;;11.90;100.00
16431;BME280;8325;49.284;7.238;2023-05-11T07:07:07;98605.09;;;11.95;100.00
16431;BME280;8325;49.284;7.238;2023-05-11T07:11:21;98609.16;;;11.98;100.00
16431;BME280;8325;49.284;7.238;2023-05-11T07:15:33;98602.91;;;11.99;100.00
16431;BME280;8325;49.284;7.238;2023-05-11T07:19:45;98604.63;;;11.92;100.00
16431;BME280;8325;49.284;7.238;2023-05-11T07:23:56;98597.91;;;12.19;100.00
16431;BME280;8325;49.284;7.238;2023-05-11T07:28:08;98601.03;;;12.44;100.00
16431;BME280;8325;49.284;7.238;2023-05-11T07:32:20;98602.44;;;12.61;100.00
16431;BME280;8325;49.284;7.238;2023-05-11T07:36:31;98601.56;;;12.76;99.67
16431;BME280;8325;49.284;7.238;2023-05-11T07:40:43;98596.88;;;12.93;99.48
16431;BME280;8325;49.284;7.238;2023-05-11T07:44:55;98606.25;;;13.02;98.75
16431;BME280;8325;49.284;7.238;2023-05-11T07:49:06;98607.19;;;12.94;97.68
16431;BME280;8325;49.284;7.238;2023-05-11T07:53:24;98597.63;;;13.08;97.76
16431;BME280;8325;49.284;7.238;2023-05-11T07:57:36;98588.53;;;13.25;97.23
16431;BME280;8325;49.284;7.238;2023-05-11T08:01:47;98603.81;;;13.43;95.13
16431;BME280;8325;49.284;7.238;2023-05-11T08:05:59;98599.59;;;13.77;93.07
16431;BME280;8325;49.284;7.238;2023-05-11T08:10:11;98602.59;;;14.15;92.04
16431;BME280;8325;49.284;7.238;2023-05-11T08:14:23;98600.06;;;14.35;88.16
16431;BME280;8325;49.284;7.238;2023-05-11T08:18:35;98585.88;;;14.84;88.32
16431;BME280;8325;49.284;7.238;2023-05-11T08:22:47;98599.81;;;15.05;84.92
16431;BME280;8325;49.284;7.238;2023-05-11T08:26:59;98592.16;;;15.36;83.59
16431;BME280;8325;49.284;7.238;2023-05-11T08:31:10;98586.66;;;15.45;82.84
16431;BME280;8325;49.284;7.238;2023-05-11T08:35:24;98587.25;;;15.73;83.03
16431;BME280;8325;49.284;7.238;2023-05-11T08:39:36;98582.81;;;15.74;82.88
16431;BME280;8325;49.284;7.238;2023-05-11T08:43:58;98581.41;;;15.58;80.94
16431;BME280;8325;49.284;7.238;2023-05-11T08:48:10;98582.41;;;15.50;80.21
16431;BME280;8325;49.284;7.238;2023-05-11T08:52:22;98575.31;;;15.64;79.04
16431;BME280;8325;49.284;7.238;2023-05-11T08:56:36;98574.53;;;15.43;77.58
16431;BME280;8325;49.284;7.238;2023-05-11T09:00:48;98568.41;;;15.76;80.15
16431;BME280;8325;49.284;7.238;2023-05-11T09:05:01;98572.78;;;16.09;78.46
16431;BME280;8325;49.284;7.238;2023-05-11T09:09:14;98577.97;;;16.29;76.65
16431;BME280;8325;49.284;7.238;2023-05-11T09:13:29;98572.09;;;16.27;74.77
16431;BME280;8325;49.284;7.238;2023-05-11T09:17:41;98574.06;;;16.38;75.35
16431;BME280;8325;49.284;7.238;2023-05-11T09:21:52;98569.00;;;16.37;73.14
16431;BME280;8325;49.284;7.238;2023-05-11T09:26:12;98566.78;;;16.33;74.80
16431;BME280;8325;49.284;7.238;2023-05-11T09:30:24;98573.94;;;16.26;74.57
16431;BME280;8325;49.284;7.238;2023-05-11T09:34:35;98568.34;;;16.03;74.42
16431;BME280;8325;49.284;7.238;2023-05-11T09:38:54;98567.16;;;15.99;75.05
16431;BME280;8325;49.284;7.238;2023-05-11T09:43:18;98567.94;;;15.99;73.19
16431;BME280;8325;49.284;7.238;2023-05-11T09:47:38;98560.50;;;15.90;75.15
16431;BME280;8325;49.284;7.238;2023-05-11T09:51:59;98563.06;;;16.03;75.07
16431;BME280;8325;49.284;7.238;2023-05-11T09:56:12;98563.84;;;16.10;72.66
16431;BME280;8325;49.284;7.238;2023-05-11T10:00:24;98564.25;;;16.14;71.39
16431;BME280;8325;49.284;7.238;2023-05-11T10:04:35;98554.03;;;16.30;69.75
16431;BME280;8325;49.284;7.238;2023-05-11T10:08:47;98554.88;;;16.24;70.47
16431;BME280;8325;49.284;7.238;2023-05-11T10:13:01;98556.06;;;16.28;70.14
16431;BME280;8325;49.284;7.238;2023-05-11T10:17:14;98553.84;;;16.25;70.20
16431;BME280;8325;49.284;7.238;2023-05-11T10:21:26;98546.22;;;16.49;70.07
16431;BME280;8325;49.284;7.238;2023-05-11T10:25:39;98541.63;;;16.76;69.83
16431;BME280;8325;49.284;7.238;2023-05-11T10:29:51;98540.72;;;16.89;70.03
16431;BME280;8325;49.284;7.238;2023-05-11T10:34:02;98540.19;;;16.73;66.90
16431;BME280;8325;49.284;7.238;2023-05-11T10:38:15;98536.47;;;16.88;68.49
16431;BME280;8325;49.284;7.238;2023-05-11T10:43:02;98535.06;;;16.85;68.28
16431;BME280;8325;49.284;7.238;2023-05-11T10:47:24;98540.44;;;16.65;70.26
16431;BME280;8325;49.284;7.238;2023-05-11T11:05:11;98535.16;;;16.65;70.56
16431;BME280;8325;49.284;7.238;2023-05-11T11:09:51;98528.09;;;16.66;71.04
16431;BME280;8325;49.284;7.238;2023-05-11T11:14:04;98533.13;;;16.67;71.00
16431;BME280;8325;49.284;7.238;2023-05-11T11:18:24;98527.53;;;16.57;71.71
16431;BME280;8325;49.284;7.238;2023-05-11T11:26:49;98521.13;;;16.40;70.70
16431;BME280;8325;49.284;7.238;2023-05-11T11:31:23;98524.50;;;16.15;70.02
16431;BME280;8325;49.284;7.238;2023-05-11T11:39:50;98518.38;;;15.83;71.48
16431;BME280;8325;49.284;7.238;2023-05-11T11:44:20;98520.22;;;15.62;71.22
16431;BME280;8325;49.284;7.238;2023-05-11T11:48:38;98522.69;;;15.51;70.79
16431;BME280;8325;49.284;7.238;2023-05-11T11:52:52;98519.06;;;15.38;71.50
16431;BME280;8325;49.284;7.238;2023-05-11T11:57:04;98530.41;;;15.32;73.03
16431;BME280;8325;49.284;7.238;2023-05-11T12:01:24;98528.78;;;15.31;73.80
16431;BME280;8325;49.284;7.238;2023-05-11T12:05:38;98526.78;;;15.13;74.52
16431;BME280;8325;49.284;7.238;2023-05-11T12:09:52;98538.13;;;15.07;74.88
16431;BME280;8325;49.284;7.238;2023-05-11T12:14:04;98524.94;;;14.67;77.44
16431;BME280;8325;49.284;7.238;2023-05-11T12:18:22;98519.91;;;14.66;80.76
16431;BME280;8325;49.284;7.238;2023-05-11T12:22:35;98519.50;;;14.89;81.49
16431;BME280;8325;49.284;7.238;2023-05-11T12:26:46;98518.31;;;14.78;81.41
16431;BME280;8325;49.284;7.238;2023-05-11T12:30:58;98520.31;;;14.63;82.53
16431;BME280;8325;49.284;7.238;2023-05-11T12:35:11;98509.59;;;14.71;81.19
16431;BME280;8325;49.284;7.238;2023-05-11T12:39:25;98513.22;;;14.57;81.34
16431;BME280;8325;49.284;7.238;2023-05-11T12:43:37;98512.31;;;14.23;83.46
16431;BME280;8325;49.284;7.238;2023-05-11T12:47:50;98510.69;;;14.22;81.91
16431;BME280;8325;49.284;7.238;2023-05-11T12:52:04;98510.91;;;14.20;82.00
16431;BME280;8325;49.284;7.238;2023-05-11T12:56:19;98498.56;;;14.14;82.78
16431;BME280;8325;49.284;7.238;2023-05-11T13:00:31;98511.25;;;14.04;80.67
16431;BME280;8325;49.284;7.238;2023-05-11T13:04:44;98491.91;;;14.25;82.23
16431;BME280;8325;49.284;7.238;2023-05-11T13:08:56;98487.88;;;14.29;84.15
16431;BME280;8325;49.284;7.238;2023-05-11T13:13:07;98491.97;;;14.52;83.79
16431;BME280;8325;49.284;7.238;2023-05-11T13:17:34;98497.25;;;14.52;84.27
16431;BME280;8325;49.284;7.238;2023-05-11T13:21:47;98486.88;;;14.43;84.65
16431;BME280;8325;49.284;7.238;2023-05-11T13:25:58;98481.50;;;14.78;83.83
16431;BME280;8325;49.284;7.238;2023-05-11T13:30:11;98486.72;;;15.05;82.56
16431;BME280;8325;49.284;7.238;2023-05-11T13:34:23;98471.09;;;15.36;79.60
16431;BME280;8325;49.284;7.238;2023-05-11T13:38:35;98474.03;;;15.73;77.88
16431;BME280;8325;49.284;7.238;2023-05-11T13:42:47;98471.34;;;15.86;74.37
16431;BME280;8325;49.284;7.238;2023-05-11T13:46:58;98464.50;;;16.49;72.64
16431;BME280;8325;49.284;7.238;2023-05-11T13:51:10;98468.75;;;16.50;75.48
16431;BME280;8325;49.284;7.238;2023-05-11T13:55:21;98452.28;;;16.54;72.21
16431;BME280;8325;49.284;7.238;2023-05-11T13:59:33;98446.91;;;16.43;66.83
16431;BME280;8325;49.284;7.238;2023-05-11T14:03:50;98440.66;;;17.12;66.48
16431;BME280;8325;49.284;7.238;2023-05-11T14:08:02;98438.94;;;17.73;61.15
16431;BME280;8325;49.284;7.238;2023-05-11T14:12:14;98435.38;;;17.49;61.43
16431;BME280;8325;49.284;7.238;2023-05-11T14:16:26;98436.28;;;17.43;62.70
16431;BME280;8325;49.284;7.238;2023-05-11T14:20:38;98441.03;;;17.16;59.77
16431;BME280;8325;49.284;7.238;2023-05-11T14:24:52;98443.88;;;17.14;59.92
16431;BME280;8325;49.284;7.238;2023-05-11T14:29:04;98437.72;;;17.39;60.43
16431;BME280;8325;49.284;7.238;2023-05-11T14:33:16;98427.06;;;17.64;64.05
16431;BME280;8325;49.284;7.238;2023-05-11T14:37:28;98427.47;;;17.12;60.13
16431;BME280;8325;49.284;7.238;2023-05-11T14:41:39;98432.56;;;16.89;61.00
16431;BME280;8325;49.284;7.238;2023-05-11T14:45:51;98426.69;;;16.87;60.72
16431;BME280;8325;49.284;7.238;2023-05-11T14:50:03;98418.69;;;16.68;64.09
16431;BME280;8325;49.284;7.238;2023-05-11T14:54:14;98419.38;;;16.89;64.08
16431;BME280;8325;49.284;7.238;2023-05-11T14:58:26;98436.69;;;17.03;62.92
16431;BME280;8325;49.284;7.238;2023-05-11T15:02:38;98426.31;;;16.58;62.32
16431;BME280;8325;49.284;7.238;2023-05-11T15:06:49;98432.31;;;16.65;60.93
16431;BME280;8325;49.284;7.238;2023-05-11T15:11:01;98438.97;;;16.18;59.54
16431;BME280;8325;49.284;7.238;2023-05-11T15:15:14;98437.19;;;16.11;58.06
16431;BME280;8325;49.284;7.238;2023-05-11T15:19:25;98430.41;;;16.22;59.28
16431;BME280;8325;49.284;7.238;2023-05-11T15:23:37;98432.19;;;15.97;56.77
16431;BME280;8325;49.284;7.238;2023-05-11T15:27:49;98427.94;;;15.96;57.63
16431;BME280;8325;49.284;7.238;2023-05-11T15:32:01;98431.25;;;16.16;57.10
16431;BME280;8325;49.284;7.238;2023-05-11T15:36:13;98421.41;;;16.37;58.30
16431;BME280;8325;49.284;7.238;2023-05-11T15:40:25;98426.56;;;16.50;57.71
16431;BME280;8325;49.284;7.238;2023-05-11T15:44:38;98431.22;;;16.79;60.24
16431;BME280;8325;49.284;7.238;2023-05-11T15:48:50;98429.13;;;16.88;68.10
16431;BME280;8325;49.284;7.238;2023-05-11T15:53:02;98427.28;;;16.89;70.50
16431;BME280;8325;49.284;7.238;2023-05-11T15:57:14;98428.44;;;16.93;70.63
16431;BME280;8325;49.284;7.238;2023-05-11T16:01:25;98424.13;;;16.98;70.78
16431;BME280;8325;49.284;7.238;2023-05-11T16:05:37;98419.09;;;16.97;70.59
16431;BME280;8325;49.284;7.238;2023-05-11T16:09:49;98421.22;;;17.07;71.21
16431;BME280;8325;49.284;7.238;2023-05-11T16:14:01;98412.34;;;17.01;71.61
16431;BME280;8325;49.284;7.238;2023-05-11T16:18:12;98415.59;;;17.03;71.15
16431;BME280;8325;49.284;7.238;2023-05-11T16:22:24;98414.38;;;16.99;70.65
16431;BME280;8325;49.284;7.238;2023-05-11T16:26:36;98403.72;;;17.12;69.94
16431;BME280;8325;49.284;7.238;2023-05-11T16:30:48;98403.75;;;17.24;68.97
16431;BME280;8325;49.284;7.238;2023-05-11T16:34:59;98405.97;;;17.27;68.78
16431;BME280;8325;49.284;7.238;2023-05-11T16:39:11;98408.59;;;17.09;66.91
16431;BME280;8325;49.284;7.238;2023-05-11T16:43:22;98410.13;;;16.79;63.95
16431;BME280;8325;49.284;7.238;2023-05-11T16:47:34;98399.81;;;16.71;65.48
16431;BME280;8325;49.284;7.238;2023-05-11T16:51:46;98403.53;;;16.14;65.93
16431;BME280;8325;49.284;7.238;2023-05-11T16:55:57;98400.63;;;15.90;67.42
16431;BME280;8325;49.284;7.238;2023-05-11T17:00:09;98401.25;;;15.85;67.16
16431;BME280;8325;49.284;7.238;2023-05-11T17:04:21;98410.78;;;15.86;70.03
16431;BME280;8325;49.284;7.238;2023-05-11T17:08:33;98403.50;;;15.82;71.44
16431;BME280;8325;49.284;7.238;2023-05-11T17:12:44;98415.78;;;15.50;71.92
16431;BME280;8325;49.284;7.238;2023-05-11T17:16:56;98425.13;;;15.46;72.68
16431;BME280;8325;49.284;7.238;2023-05-11T17:21:08;98423.75;;;15.36;72.43
16431;BME280;8325;49.284;7.238;2023-05-11T17:25:20;98420.31;;;15.23;73.90
16431;BME280;8325;49.284;7.238;2023-05-11T17:29:32;98419.94;;;15.19;72.43
16431;BME280;8325;49.284;7.238;2023-05-11T17:33:43;98427.63;;;15.07;71.91
16431;BME280;8325;49.284;7.238;2023-05-11T17:37:55;98425.63;;;15.09;72.11
16431;BME280;8325;49.284;7.238;2023-05-11T17:42:10;98432.50;;;15.04;73.22
16431;BME280;8325;49.284;7.238;2023-05-11T17:46:22;98430.88;;;15.09;73.45
16431;BME280;8325;49.284;7.238;2023-05-11T17:50:37;98433.28;;;15.11;76.17
16431;BME280;8325;49.284;7.238;2023-05-11T17:54:49;98432.94;;;14.94;79.31
16431;BME280;8325;49.284;7.238;2023-05-11T17:59:00;98445.66;;;15.04;80.52
16431;BME280;8325;49.284;7.238;2023-05-11T18:03:12;98441.41;;;15.03;80.34
16431;BME280;8325;49.284;7.238;2023-05-11T18:07:23;98442.63;;;14.80;81.51
16431;BME280;8325;49.284;7.238;2023-05-11T18:11:35;98448.72;;;14.87;82.60
16431;BME280;8325;49.284;7.238;2023-05-11T18:15:47;98454.97;;;14.86;81.87
16431;BME280;8325;49.284;7.238;2023-05-11T18:19:59;98445.69;;;14.70;82.80
16431;BME280;8325;49.284;7.238;2023-05-11T18:24:10;98451.97;;;14.63;84.34
16431;BME280;8325;49.284;7.238;2023-05-11T18:28:24;98454.38;;;14.58;84.97
16431;BME280;8325;49.284;7.238;2023-05-11T18:32:36;98452.53;;;14.38;83.31
16431;BME280;8325;49.284;7.238;2023-05-11T18:36:48;98445.22;;;14.40;84.31
16431;BME280;8325;49.284;7.238;2023-05-11T18:41:03;98451.09;;;14.36;85.49
16431;BME280;8325;49.284;7.238;2023-05-11T18:45:15;98455.34;;;14.23;85.11
16431;BME280;8325;49.284;7.238;2023-05-11T18:49:28;98458.53;;;14.05;86.13
16431;BME280;8325;49.284;7.238;2023-05-11T18:53:39;98466.41;;;14.05;86.89
16431;BME280;8325;49.284;7.238;2023-05-11T18:57:51;98459.09;;;13.94;86.84
16431;BME280;8325;49.284;7.238;2023-05-11T19:02:03;98470.41;;;13.95;85.84
16431;BME280;8325;49.284;7.238;2023-05-11T19:06:15;98482.91;;;13.86;86.63
16431;BME280;8325;49.284;7.238;2023-05-11T19:10:26;98488.09;;;13.73;86.44
16431;BME280;8325;49.284;7.238;2023-05-11T19:14:38;98489.91;;;13.72;86.61
16431;BME280;8325;49.284;7.238;2023-05-11T19:18:50;98485.47;;;13.73;86.30
16431;BME280;8325;49.284;7.238;2023-05-11T19:23:01;98488.44;;;13.63;85.68
16431;BME280;8325;49.284;7.238;2023-05-11T19:27:14;98494.75;;;13.69;85.29
16431;BME280;8325;49.284;7.238;2023-05-11T19:31:26;98498.97;;;13.70;86.93
16431;BME280;8325;49.284;7.238;2023-05-11T19:35:41;98504.16;;;13.56;85.73
16431;BME280;8325;49.284;7.238;2023-05-11T19:39:53;98507.84;;;13.62;87.16
16431;BME280;8325;49.284;7.238;2023-05-11T19:44:21;98516.38;;;13.71;88.23
16431;BME280;8325;49.284;7.238;2023-05-11T19:48:33;98513.50;;;13.66;91.13
16431;BME280;8325;49.284;7.238;2023-05-11T19:52:45;98517.53;;;13.62;91.28
16431;BME280;8325;49.284;7.238;2023-05-11T19:56:57;98524.75;;;13.53;92.45
16431;BME280;8325;49.284;7.238;2023-05-11T20:01:12;98522.63;;;13.35;93.51
16431;BME280;8325;49.284;7.238;2023-05-11T20:05:25;98529.34;;;13.23;94.30
16431;BME280;8325;49.284;7.238;2023-05-11T20:09:36;98533.75;;;13.16;94.60
16431;BME280;8325;49.284;7.238;2023-05-11T20:13:48;98534.91;;;13.06;95.01
16431;BME280;8325;49.284;7.238;2023-05-11T20:18:00;98538.06;;;13.02;95.38
16431;BME280;8325;49.284;7.238;2023-05-11T20:22:13;98532.41;;;12.98;96.45
16431;BME280;8325;49.284;7.238;2023-05-11T20:26:24;98533.66;;;13.02;97.68
16431;BME280;8325;49.284;7.238;2023-05-11T20:30:38;98536.41;;;12.94;97.90
16431;BME280;8325;49.284;7.238;2023-05-11T20:34:50;98538.16;;;13.08;99.41
16431;BME280;8325;49.284;7.238;2023-05-11T20:39:02;98540.94;;;13.07;99.90
16431;BME280;8325;49.284;7.238;2023-05-11T20:43:13;98535.09;;;12.83;99.88
16431;BME280;8325;49.284;7.238;2023-05-11T20:47:25;98535.94;;;12.84;100.00
16431;BME280;8325;49.284;7.238;2023-05-11T20:51:37;98538.78;;;12.67;100.00
16431;BME280;8325;49.284;7.238;2023-05-11T20:55:48;98535.31;;;12.60;100.00
16431;BME280;8325;49.284;7.238;2023-05-11T21:00:01;98537.66;;;12.55;100.00
16431;BME280;8325;49.284;7.238;2023-05-11T21:04:15;98533.22;;;12.56;100.00
16431;BME280;8325;49.284;7.238;2023-05-11T21:08:27;98528.50;;;12.44;100.00
16431;BME280;8325;49.284;7.238;2023-05-11T21:12:38;98531.44;;;12.35;100.00
16431;BME280;8325;49.284;7.238;2023-05-11T21:16:50;98524.50;;;12.27;100.00
16431;BME280;8325;49.284;7.238;2023-05-11T21:21:01;98534.59;;;12.30;100.00
16431;BME280;8325;49.284;7.238;2023-05-11T21:25:14;98527.84;;;12.21;100.00
16431;BME280;8325;49.284;7.238;2023-05-11T21:29:26;98533.72;;;12.23;100.00
